Time;durP1;ratioP1;P1;durP2;ratioP2;P2;SDS_P1;SDS_P2;PMS_P1;PMS_P2;Temp;Humidity;BMP_temperature;BMP_pressure;BME280_temperature;BME280_humidity;BME280_pressure;Samples;Min_cycle;Max_cycle;Signal;HPM_P1;HPM_P2
2022/05/08 15:46:52;;;;;;;;;;;27.20;41.60;;;;;;5124289;27;1949285;-75
2022/05/08 15:49:17;;;;;;;;;;;27.10;41.40;;;;;;5130455;27;19923;-76
2022/05/08 15:51:43;;;;;;;;;;;26.80;40.60;;;;;;5136977;27;19947;-76
2022/05/08 15:54:12;;;;;;;;;;;26.90;42.00;;;;;;5171073;27;19929;-81
2022/05/08 15:56:38;;;;;;;;;;;27.10;41.50;;;;;;5156461;27;20414;-78
2022/05/08 15:59:04;;;;;;;;;;;27.00;41.10;;;;;;5115628;27;19923;-74
2022/05/08 16:01:30;;;;;;;;;;;26.60;40.80;;;;;;5159000;27;20371;-78
2022/05/08 16:03:56;;;;;;;;;;;26.40;41.60;;;;;;5161193;27;20037;-76
2022/05/08 16:06:22;;;;;;;;;;;26.60;41.00;;;;;;5129172;27;19966;-76
2022/05/08 16:08:47;;;;;;;;;;;26.70;41.70;;;;;;5146065;27;19923;-76
2022/05/08 16:11:13;;;;;;;;;;;27.10;42.60;;;;;;5135140;27;19934;-75
2022/05/08 16:24:38;;;;;;;;;;;22.60;72.60;;;;;;5157097;27;19923;-73
2022/05/08 16:27:04;;;;;;;;;;;23.10;71.60;;;;;;5163469;27;19923;-82
2022/05/08 16:29:29;;;;;;;;;;;23.70;62.80;;;;;;5164528;27;20401;-74
2022/05/08 16:31:55;;;;;;;;;;;24.50;58.70;;;;;;5148372;27;19962;-75
2022/05/08 16:34:20;;;;;;;;;;;25.50;55.10;;;;;;5170391;27;19923;-75
2022/05/08 16:36:46;;;;;;;;;;;26.10;53.90;;;;;;5150351;27;19931;-75
2022/05/08 16:39:12;;;;;;;;;;;26.50;50.20;;;;;;5139380;27;19972;-75
2022/05/08 16:41:37;;;;;;;;;;;26.70;48.20;;;;;;5143475;27;19931;-75
2022/05/08 16:44:09;;;;;;;;;;;26.80;48.40;;;;;;5143151;27;19928;-75
2022/05/08 16:46:36;;;;;;;;;;;26.60;44.70;;;;;;5157665;27;19927;-77
2022/05/08 16:49:02;;;;;;;;;;;26.70;46.40;;;;;;5121754;27;19976;-75
2022/05/08 16:51:28;;;;;;;;;;;26.70;45.20;;;;;;5146789;27;20283;-79
2022/05/08 16:53:54;;;;;;;;;;;26.90;44.50;;;;;;5133777;27;19923;-75
2022/05/08 16:56:19;;;;;;;;;;;27.10;44.10;;;;;;5165546;27;20460;-77
2022/05/08 16:58:45;;;;;;;;;;;27.20;44.00;;;;;;5100780;27;19966;-76
2022/05/08 17:01:11;;;;;;;;;;;27.20;41.80;;;;;;5091520;27;20368;-77
2022/05/08 17:03:36;;;;;;;;;;;27.20;41.60;;;;;;5106279;27;19964;-75
2022/05/08 17:06:02;;;;;;;;;;;27.10;41.50;;;;;;5129604;27;19923;-76
2022/05/08 17:08:28;;;;;;;;;;;27.00;42.40;;;;;;5105435;27;19924;-76
2022/05/08 17:10:53;;;;;;;;;;;26.90;44.60;;;;;;5097687;27;19923;-81
2022/05/08 17:13:19;;;;;;;;;;;26.80;42.70;;;;;;5104337;27;20379;-76
2022/05/08 17:15:46;;;;;;;;;;;26.90;43.10;;;;;;5125257;27;19949;-77
2022/05/08 17:18:12;;;;;;;;;;;26.90;43.00;;;;;;5126684;27;20001;-76
2022/05/08 17:20:38;;;;;;;;;;;27.10;42.20;;;;;;5108264;27;20006;-77
2022/05/08 17:23:05;;;;;;;;;;;26.70;41.40;;;;;;5104088;27;19931;-79
2022/05/08 17:25:31;;;;;;;;;;;26.60;43.30;;;;;;5121705;27;19969;-76
2022/05/08 17:30:41;;;;;;;;;;;26.20;42.40;;;;;;5090001;28;19931;-83
2022/05/08 17:33:07;;;;;;;;;;;26.00;43.80;;;;;;5102623;27;20145;-77
2022/05/08 17:35:35;;;;;;;;;;;26.00;43.30;;;;;;5120309;27;20018;-76
2022/05/08 17:38:01;;;;;;;;;;;25.70;42.60;;;;;;5112471;27;20295;-79
2022/05/08 17:40:27;;;;;;;;;;;24.40;42.70;;;;;;5108413;27;19950;-74
2022/05/08 17:42:52;;;;;;;;;;;22.90;45.30;;;;;;5154149;27;19923;-75
2022/05/08 17:45:18;;;;;;;;;;;22.00;47.60;;;;;;5122780;27;19931;-75
2022/05/08 17:47:44;;;;;;;;;;;21.00;48.90;;;;;;5099759;27;19923;-76
2022/05/08 17:50:10;;;;;;;;;;;20.20;50.70;;;;;;5120154;27;19928;-76
2022/05/08 17:52:35;;;;;;;;;;;19.40;52.30;;;;;;5115111;27;20006;-75
2022/05/08 17:55:01;;;;;;;;;;;18.90;53.10;;;;;;5080268;28;19928;-78
2022/05/08 17:57:28;;;;;;;;;;;18.40;55.20;;;;;;5099610;28;19923;-75
2022/05/08 17:59:54;;;;;;;;;;;18.00;57.50;;;;;;5095961;28;19931;-75
2022/05/08 18:07:47;;;;;;;;;;;17.10;62.70;;;;;;5095427;28;20290;-75
2022/05/08 18:10:13;;;;;;;;;;;16.80;64.50;;;;;;5095628;28;19924;-75
2022/05/08 18:12:39;;;;;;;;;;;16.50;67.70;;;;;;5118689;27;19992;-75
2022/05/08 18:15:05;;;;;;;;;;;16.50;70.90;;;;;;5111812;27;19931;-80
2022/05/08 18:17:31;;;;;;;;;;;16.40;76.00;;;;;;5119429;27;19970;-79
2022/05/08 18:19:57;;;;;;;;;;;16.20;80.20;;;;;;5131171;27;20447;-75
2022/05/08 18:22:22;;;;;;;;;;;16.00;85.40;;;;;;5108004;28;20023;-75
2022/05/08 18:24:48;;;;;;;;;;;15.90;90.50;;;;;;5096297;28;19923;-79
2022/05/08 18:27:14;;;;;;;;;;;15.80;93.00;;;;;;5096400;28;19930;-75
2022/05/08 18:29:39;;;;;;;;;;;15.70;93.40;;;;;;5096549;28;20434;-75
2022/05/08 18:32:05;;;;;;;;;;;15.50;97.90;;;;;;5079362;28;19947;-77
2022/05/08 18:34:31;;;;;;;;;;;15.40;98.50;;;;;;5124860;27;19982;-76
2022/05/08 18:36:59;;;;;;;;;;;15.30;99.70;;;;;;5116656;27;19966;-75
2022/05/08 18:39:25;;;;;;;;;;;15.20;99.60;;;;;;5116955;27;20393;-76
2022/05/08 18:41:51;;;;;;;;;;;15.10;99.90;;;;;;5110888;27;19934;-76
2022/05/08 18:44:16;;;;;;;;;;;15.00;99.90;;;;;;5126910;27;19924;-77
2022/05/08 18:46:42;;;;;;;;;;;14.90;99.90;;;;;;5106418;28;19934;-74
2022/05/08 18:49:20;;;;;;;;;;;14.80;99.90;;;;;;5102041;28;20014;-74
2022/05/08 18:51:45;;;;;;;;;;;14.70;99.90;;;;;;5119863;27;19948;-75
2022/05/08 18:54:11;;;;;;;;;;;14.60;99.90;;;;;;5084408;27;20010;-75
2022/05/08 18:56:37;;;;;;;;;;;14.50;99.90;;;;;;5089278;27;19931;-75
2022/05/08 18:59:02;;;;;;;;;;;14.40;99.90;;;;;;5113494;28;19977;-75
2022/05/08 19:01:28;;;;;;;;;;;14.30;99.90;;;;;;5116166;27;19923;-76
2022/05/08 19:03:53;;;;;;;;;;;14.10;99.90;;;;;;5083894;28;19924;-74
2022/05/08 19:06:19;;;;;;;;;;;14.00;99.90;;;;;;5099519;27;20067;-74
2022/05/08 19:08:45;;;;;;;;;;;13.90;99.90;;;;;;5100644;28;20407;-76
2022/05/08 19:11:11;;;;;;;;;;;13.70;99.90;;;;;;5120176;27;19976;-74
2022/05/08 19:13:38;;;;;;;;;;;13.70;99.90;;;;;;5100825;27;19931;-76
2022/05/08 19:16:04;;;;;;;;;;;13.60;99.90;;;;;;5095218;28;19986;-73
2022/05/08 19:18:30;;;;;;;;;;;13.50;99.90;;;;;;5124628;27;19924;-74
2022/05/08 19:20:55;;;;;;;;;;;13.50;99.90;;;;;;5119979;27;19924;-74
2022/05/08 19:23:21;;;;;;;;;;;13.30;99.90;;;;;;5100918;28;20368;-74
2022/05/08 19:25:47;;;;;;;;;;;13.30;99.90;;;;;;5101584;27;19988;-74
2022/05/08 19:28:13;;;;;;;;;;;13.20;99.90;;;;;;5115141;27;19931;-74
2022/05/08 19:30:38;;;;;;;;;;;13.00;99.90;;;;;;5096070;28;19924;-74
2022/05/08 19:38:34;;;;;;;;;;;12.90;99.90;;;;;;5110744;28;19923;-74
2022/05/08 19:41:00;;;;;;;;;;;12.80;99.90;;;;;;5087777;28;19929;-74
2022/05/08 19:43:25;;;;;;;;;;;12.70;99.90;;;;;;5097839;28;19935;-74
2022/05/08 19:45:51;;;;;;;;;;;12.60;99.90;;;;;;5115382;28;19931;-74
2022/05/08 19:48:17;;;;;;;;;;;12.50;99.90;;;;;;5102422;28;20373;-74
2022/05/08 19:50:42;;;;;;;;;;;12.40;99.90;;;;;;5119870;28;19938;-76
2022/05/08 19:53:08;;;;;;;;;;;12.40;99.90;;;;;;5119162;28;20018;-74
2022/05/08 19:55:33;;;;;;;;;;;12.30;99.90;;;;;;5081931;28;19931;-74
2022/05/08 19:57:59;;;;;;;;;;;12.20;99.90;;;;;;5117967;28;19928;-77
2022/05/08 20:00:25;;;;;;;;;;;12.10;99.90;;;;;;5100548;28;19935;-76
2022/05/08 20:02:51;;;;;;;;;;;12.10;99.90;;;;;;5097464;28;19924;-74
2022/05/08 20:05:17;;;;;;;;;;;12.00;99.90;;;;;;5099688;28;19924;-80
2022/05/08 20:07:45;;;;;;;;;;;12.00;99.90;;;;;;5102458;28;19951;-80
2022/05/08 20:10:11;;;;;;;;;;;11.90;99.90;;;;;;5111385;28;20311;-75
2022/05/08 20:12:37;;;;;;;;;;;11.90;99.90;;;;;;5133467;28;19986;-74
2022/05/08 20:15:02;;;;;;;;;;;11.80;99.90;;;;;;5107250;28;19931;-74
2022/05/08 20:17:28;;;;;;;;;;;11.80;99.90;;;;;;5096600;28;19930;-74
2022/05/08 20:19:54;;;;;;;;;;;11.70;99.90;;;;;;5091447;28;19931;-74
2022/05/08 20:22:20;;;;;;;;;;;11.60;99.90;;;;;;5124791;28;19935;-74
2022/05/08 20:24:49;;;;;;;;;;;11.60;99.90;;;;;;5103609;28;20375;-74
2022/05/08 20:27:14;;;;;;;;;;;11.50;99.90;;;;;;5122698;28;19923;-74
2022/05/08 20:29:40;;;;;;;;;;;11.30;99.90;;;;;;5120802;28;19931;-74
2022/05/08 20:32:07;;;;;;;;;;;11.20;99.90;;;;;;5104573;27;19932;-74
2022/05/08 20:34:32;;;;;;;;;;;11.10;99.90;;;;;;5104883;27;19931;-76
2022/05/08 20:36:58;;;;;;;;;;;10.90;99.90;;;;;;5110070;27;20359;-74
2022/05/08 20:39:24;;;;;;;;;;;10.90;99.90;;;;;;5108079;27;19920;-74
2022/05/08 20:41:50;;;;;;;;;;;10.80;99.90;;;;;;5107167;27;19927;-74
2022/05/08 20:44:17;;;;;;;;;;;10.80;99.90;;;;;;5129798;27;19924;-74
2022/05/08 20:46:42;;;;;;;;;;;10.70;99.90;;;;;;5125790;27;19928;-75
2022/05/08 20:49:09;;;;;;;;;;;10.70;99.90;;;;;;5100768;28;20480;-75
2022/05/08 20:51:35;;;;;;;;;;;10.60;99.90;;;;;;5116628;27;20016;-75
2022/05/08 20:54:01;;;;;;;;;;;10.60;99.90;;;;;;5126699;27;19971;-75
2022/05/08 20:56:28;;;;;;;;;;;10.50;99.90;;;;;;5120514;27;20237;-75
2022/05/08 20:58:54;;;;;;;;;;;10.40;99.90;;;;;;5116134;28;19930;-74
2022/05/08 21:01:22;;;;;;;;;;;10.30;99.90;;;;;;5097879;28;19927;-74
2022/05/08 21:03:49;;;;;;;;;;;10.20;99.90;;;;;;5090792;28;19928;-75
2022/05/08 21:09:02;;;;;;;;;;;10.20;99.90;;;;;;5109549;28;20057;-76
2022/05/08 21:11:28;;;;;;;;;;;10.10;99.90;;;;;;5097572;28;19927;-75
2022/05/08 21:13:55;;;;;;;;;;;10.10;99.90;;;;;;5099372;28;19924;-74
2022/05/08 21:16:21;;;;;;;;;;;10.00;99.90;;;;;;5118145;27;19931;-74
2022/05/08 21:18:47;;;;;;;;;;;10.00;99.90;;;;;;5109021;27;19924;-79
2022/05/08 21:21:12;;;;;;;;;;;9.90;99.90;;;;;;5098598;28;19924;-74
2022/05/08 21:23:39;;;;;;;;;;;9.90;99.90;;;;;;5115946;27;19945;-74
2022/05/08 21:26:04;;;;;;;;;;;9.90;99.90;;;;;;5097342;28;20030;-74
2022/05/08 21:28:30;;;;;;;;;;;9.80;99.90;;;;;;5129430;27;20022;-75
2022/05/08 21:30:55;;;;;;;;;;;9.70;99.90;;;;;;5097464;28;19923;-75
2022/05/08 21:33:21;;;;;;;;;;;9.70;99.90;;;;;;5096966;28;19931;-74
2022/05/08 21:35:47;;;;;;;;;;;9.50;99.90;;;;;;5109696;27;19984;-74
2022/05/08 21:38:12;;;;;;;;;;;9.50;99.90;;;;;;5097391;28;19986;-75
2022/05/08 21:40:38;;;;;;;;;;;9.50;99.90;;;;;;5104191;27;20291;-75
2022/05/08 21:43:03;;;;;;;;;;;9.50;99.90;;;;;;5117801;27;19930;-74
2022/05/08 21:45:29;;;;;;;;;;;9.40;99.90;;;;;;5125903;27;19924;-74
2022/05/08 21:47:55;;;;;;;;;;;9.40;99.90;;;;;;5114722;28;19924;-74
2022/05/08 21:50:20;;;;;;;;;;;9.40;99.90;;;;;;5115467;28;19923;-74
2022/05/08 21:52:46;;;;;;;;;;;9.50;99.90;;;;;;5115176;28;19928;-74
2022/05/08 21:55:11;;;;;;;;;;;9.50;99.90;;;;;;5098110;27;19923;-74
2022/05/08 21:57:37;;;;;;;;;;;9.40;99.90;;;;;;5115128;28;19932;-74
2022/05/08 22:00:08;;;;;;;;;;;9.30;99.90;;;;;;5134802;27;20399;-73
2022/05/08 22:02:34;;;;;;;;;;;9.30;99.90;;;;;;5117323;27;19969;-74
2022/05/08 22:05:00;;;;;;;;;;;9.20;99.90;;;;;;5135201;27;19966;-74
2022/05/08 22:07:25;;;;;;;;;;;9.20;99.90;;;;;;5084686;28;19969;-74
2022/05/08 22:09:51;;;;;;;;;;;9.20;99.90;;;;;;5114915;28;20018;-74
2022/05/08 22:12:16;;;;;;;;;;;9.30;99.90;;;;;;5079841;28;19935;-74
2022/05/08 22:14:42;;;;;;;;;;;9.30;99.90;;;;;;5096697;28;19924;-75
2022/05/08 22:17:07;;;;;;;;;;;9.30;99.90;;;;;;5121467;27;19923;-74
2022/05/08 22:19:33;;;;;;;;;;;9.30;99.90;;;;;;5103384;27;19998;-74
2022/05/08 22:22:03;;;;;;;;;;;9.30;99.90;;;;;;5100079;27;19924;-74
2022/05/08 22:24:28;;;;;;;;;;;9.20;99.90;;;;;;5116375;27;19923;-74
2022/05/08 22:26:55;;;;;;;;;;;9.20;99.90;;;;;;5132518;27;20007;-74
2022/05/08 22:29:21;;;;;;;;;;;9.10;99.90;;;;;;5111073;28;19935;-74
2022/05/08 22:31:46;;;;;;;;;;;9.10;99.90;;;;;;5096426;28;19928;-74
2022/05/08 22:34:12;;;;;;;;;;;9.00;99.90;;;;;;5114848;27;20229;-74
2022/05/08 22:36:38;;;;;;;;;;;8.90;99.90;;;;;;5114295;28;20437;-74
2022/05/08 22:39:04;;;;;;;;;;;8.90;99.90;;;;;;5097383;28;20010;-74
2022/05/08 22:41:31;;;;;;;;;;;8.90;99.90;;;;;;5132885;27;19931;-76
2022/05/08 22:44:00;;;;;;;;;;;8.90;99.90;;;;;;5116210;27;19933;-75
2022/05/08 22:46:25;;;;;;;;;;;8.90;99.90;;;;;;5133996;27;20015;-75
2022/05/08 22:48:51;;;;;;;;;;;8.70;99.90;;;;;;5106688;28;20014;-75
2022/05/08 22:51:16;;;;;;;;;;;8.70;99.90;;;;;;5109071;27;19970;-74
2022/05/08 22:53:42;;;;;;;;;;;8.70;99.90;;;;;;5133525;27;19919;-74
2022/05/08 22:56:07;;;;;;;;;;;8.70;99.90;;;;;;5119914;27;19931;-76
2022/05/08 22:58:33;;;;;;;;;;;8.70;99.90;;;;;;5113581;28;19967;-75
2022/05/08 23:00:58;;;;;;;;;;;8.80;99.90;;;;;;5095158;28;20291;-74
2022/05/08 23:03:24;;;;;;;;;;;8.70;99.90;;;;;;5101299;27;19966;-74
2022/05/08 23:05:50;;;;;;;;;;;8.70;99.90;;;;;;5134000;27;19931;-75
2022/05/08 23:08:15;;;;;;;;;;;8.70;99.90;;;;;;5127326;27;19924;-75
2022/05/08 23:10:41;;;;;;;;;;;8.60;99.90;;;;;;5097267;27;19939;-74
2022/05/08 23:13:07;;;;;;;;;;;8.50;99.90;;;;;;5115437;27;20017;-74
2022/05/08 23:15:33;;;;;;;;;;;8.50;99.90;;;;;;5113084;27;19924;-74
2022/05/08 23:17:59;;;;;;;;;;;8.40;99.90;;;;;;5098410;27;19927;-74
2022/05/08 23:20:26;;;;;;;;;;;8.40;99.90;;;;;;5104380;28;20001;-75
2022/05/08 23:22:53;;;;;;;;;;;8.30;99.90;;;;;;5108414;27;19923;-75
2022/05/08 23:25:20;;;;;;;;;;;8.40;99.90;;;;;;5098677;27;19924;-75
2022/05/08 23:27:46;;;;;;;;;;;8.40;99.90;;;;;;5115252;27;19931;-74
2022/05/08 23:30:12;;;;;;;;;;;8.40;99.90;;;;;;5133926;27;20283;-75
2022/05/08 23:32:38;;;;;;;;;;;8.40;99.90;;;;;;5131681;27;19930;-76
2022/05/08 23:35:04;;;;;;;;;;;8.30;99.90;;;;;;5115757;28;19931;-74
2022/05/08 23:37:30;;;;;;;;;;;8.30;99.90;;;;;;5133691;27;20294;-76
2022/05/08 23:39:55;;;;;;;;;;;8.20;99.90;;;;;;5133765;27;19923;-74
2022/05/08 23:42:21;;;;;;;;;;;8.00;99.90;;;;;;5133042;27;19975;-74
2022/05/08 23:44:46;;;;;;;;;;;7.90;99.90;;;;;;5133523;28;20018;-74
2022/05/08 23:47:12;;;;;;;;;;;7.80;99.90;;;;;;5112013;28;19924;-74
2022/05/08 23:49:37;;;;;;;;;;;7.70;99.90;;;;;;5112082;28;19931;-74
2022/05/08 23:52:04;;;;;;;;;;;7.60;99.90;;;;;;5095044;28;20018;-74
2022/05/08 23:54:30;;;;;;;;;;;7.60;99.90;;;;;;5110974;28;19934;-76
2022/05/08 23:56:55;;;;;;;;;;;7.50;99.90;;;;;;5112357;28;19924;-75
2022/05/08 23:59:21;;;;;;;;;;;7.50;99.90;;;;;;5113177;28;19924;-75
